CheckWX is a tool to help pilots better visualize weather data.  It is not intended as a substitute for an official pre-flight weather briefing.

09:24:59 UTC

KTVR METAR
Vicksburg Tallulah Regional Airport
Tallulah, Louisiana, USA
Current

32 mins ago

KTVR 190853Z AUTO 36011KT 10SM OVC010 10/08 A3023 RMK AO2 RAE34 SLP243 P0001 60005 T01000078 51004
Observed
Feb-19 @ 08:53 UTC
Wind
  • 360° at 11 KTS
Visibility
10 SM
Flight Rules
MVFR
Cloud Levels
  • Overcast at 1,000' AGL
Temperature
10°C / 50°F
Dewpoint
C / 46°F
Humidity
88%
Altimeter
30.23" Hg
Pressure
1023.72 hPa
Current Rain
0.01"
Previous

2 hours ago

KTVR 190753Z AUTO 36008KT 10SM -RA OVC010 10/08 A3023 RMK AO2 SLP243 P0002 T01000083
Observed
Feb-19 @ 07:53 UTC
Wind
  • 360° at 8 KTS
Visibility
10 SM
Flight Rules
MVFR
Conditions
Light Rain
Cloud Levels
  • Overcast at 1,000' AGL
Temperature
10°C / 50°F
Dewpoint
C / 46°F
Humidity
88%
Altimeter
30.23" Hg
Pressure
1023.72 hPa
Current Rain
0.02"
Previous

3 hours ago

KTVR 190653Z AUTO 35006KT 10SM RA OVC011 11/09 A3023 RMK AO2 CIG 009V013 SLP243 P0002 T01060089
Observed
Feb-19 @ 06:53 UTC
Wind
  • 350° at 6 KTS
Visibility
10 SM
Flight Rules
MVFR
Conditions
Rain
Cloud Levels
  • Overcast at 1,100' AGL
Temperature
11°C / 52°F
Dewpoint
C / 48°F
Humidity
88%
Altimeter
30.23" Hg
Pressure
1023.72 hPa
Current Rain
0.02"